Time;durP1;ratioP1;P1;durP2;ratioP2;P2;SDS_P1;SDS_P2;PMS_P1;PMS_P2;Temp;Humidity;BMP_temperature;BMP_pressure;BME280_temperature;BME280_humidity;BME280_pressure;Samples;Min_cycle;Max_cycle;Signal;HPM_P1;HPM_P2
2022/07/30 00:00:15;;;;;;;;;;;;;;;21.92;40.20;101521.75;5034948;28;20281;-54
2022/07/30 00:02:40;;;;;;;;;;;;;;;21.90;40.16;101518.38;5035872;28;19944;-51
2022/07/30 00:05:06;;;;;;;;;;;;;;;21.88;39.98;101520.34;5038270;28;19963;-50
2022/07/30 00:07:31;;;;;;;;;;;;;;;21.87;40.00;101518.66;5032125;28;19924;-55
2022/07/30 00:09:57;;;;;;;;;;;;;;;21.88;40.16;101522.19;5035779;28;19986;-51
2022/07/30 00:12:22;;;;;;;;;;;;;;;21.87;40.27;101515.13;5033367;28;20388;-50
2022/07/30 00:14:47;;;;;;;;;;;;;;;21.85;40.34;101523.34;5030786;28;20869;-51
2022/07/30 00:17:13;;;;;;;;;;;;;;;21.85;40.04;101525.16;5031168;28;19920;-49
2022/07/30 00:19:38;;;;;;;;;;;;;;;21.84;40.11;101529.69;5030258;28;19932;-51
2022/07/30 00:22:03;;;;;;;;;;;;;;;21.85;40.05;101525.16;5042082;28;20008;-52
2022/07/30 00:24:29;;;;;;;;;;;;;;;21.85;40.32;101519.78;5024911;28;19931;-51
2022/07/30 00:26:54;;;;;;;;;;;;;;;21.83;40.36;101522.63;5020496;28;19921;-59
2022/07/30 00:29:19;;;;;;;;;;;;;;;21.81;40.19;101519.25;5042193;28;20376;-52
2022/07/30 00:31:44;;;;;;;;;;;;;;;21.81;40.08;101513.88;5035777;28;19916;-53
2022/07/30 00:34:11;;;;;;;;;;;;;;;21.80;40.30;101505.97;5032974;28;19986;-55
2022/07/30 00:36:37;;;;;;;;;;;;;;;21.76;40.15;101511.63;5038329;28;19952;-50
2022/07/30 00:39:02;;;;;;;;;;;;;;;21.74;40.30;101513.63;5045961;28;19952;-54
2022/07/30 00:41:28;;;;;;;;;;;;;;;21.73;40.23;101511.06;5026506;28;19927;-51
2022/07/30 00:43:53;;;;;;;;;;;;;;;21.72;40.52;101504.00;5033618;28;19992;-51
2022/07/30 00:46:18;;;;;;;;;;;;;;;21.69;40.38;101505.16;5036031;28;20304;-53
2022/07/30 00:48:44;;;;;;;;;;;;;;;21.68;40.54;101502.63;5041418;28;19909;-54
2022/07/30 00:51:09;;;;;;;;;;;;;;;21.66;40.38;101496.56;5024836;28;19912;-55
2022/07/30 00:53:35;;;;;;;;;;;;;;;21.65;40.74;101502.91;5033777;28;19963;-52
2022/07/30 00:56:00;;;;;;;;;;;;;;;21.62;40.39;101494.16;5032748;28;19928;-54
2022/07/30 00:58:26;;;;;;;;;;;;;;;21.61;40.55;101497.00;5029258;28;20059;-51
2022/07/30 01:00:51;;;;;;;;;;;;;;;21.58;40.85;101497.25;5035208;28;19925;-52
2022/07/30 01:03:17;;;;;;;;;;;;;;;21.57;40.91;101496.38;5033492;28;25233;-54
2022/07/30 01:05:42;;;;;;;;;;;;;;;21.55;40.69;101493.03;5027429;28;19932;-54
2022/07/30 01:08:07;;;;;;;;;;;;;;;21.53;40.94;101492.34;5028304;28;19967;-55
2022/07/30 01:10:33;;;;;;;;;;;;;;;21.50;40.73;101500.66;5035566;28;19963;-54
2022/07/30 01:12:58;;;;;;;;;;;;;;;21.50;40.79;101491.75;5030166;28;19916;-52
2022/07/30 01:15:25;;;;;;;;;;;;;;;21.48;40.75;101498.09;5025306;28;20402;-55
2022/07/30 01:17:52;;;;;;;;;;;;;;;21.46;41.08;101500.09;5030679;28;19913;-55
2022/07/30 01:20:37;;;;;;;;;;;;;;;21.45;40.84;101492.19;5042748;28;19920;-52
2022/07/30 01:23:09;;;;;;;;;;;;;;;21.42;40.92;101487.97;5027739;28;19920;-55
2022/07/30 01:25:50;;;;;;;;;;;;;;;21.40;40.88;101489.09;5027099;28;19935;-54
2022/07/30 01:28:18;;;;;;;;;;;;;;;21.38;41.09;101491.91;5020176;28;19919;-54
2022/07/30 01:30:44;;;;;;;;;;;;;;;21.38;41.36;101501.78;5023803;28;20359;-54
2022/07/30 01:33:13;;;;;;;;;;;;;;;21.36;41.06;101501.06;5024401;28;19999;-54
2022/07/30 01:35:39;;;;;;;;;;;;;;;21.36;41.20;101493.88;5038642;28;20307;-52
2022/07/30 01:38:05;;;;;;;;;;;;;;;21.36;41.21;101490.38;5030341;28;20376;-55
2022/07/30 01:40:31;;;;;;;;;;;;;;;21.33;41.05;101488.78;5035249;28;19956;-52
2022/07/30 01:42:58;;;;;;;;;;;;;;;21.32;41.51;101497.84;5040561;28;20034;-52
2022/07/30 01:45:25;;;;;;;;;;;;;;;21.29;41.32;101492.75;5030737;28;20015;-52
2022/07/30 01:47:54;;;;;;;;;;;;;;;21.27;41.41;101492.06;5035026;28;19921;-52
2022/07/30 01:50:21;;;;;;;;;;;;;;;21.26;41.70;101490.38;5038924;28;19928;-55
2022/07/30 01:52:47;;;;;;;;;;;;;;;21.25;41.57;101480.63;5049890;28;20385;-52
2022/07/30 01:55:15;;;;;;;;;;;;;;;21.24;41.86;101481.63;5038659;28;19956;-54
2022/07/30 01:57:40;;;;;;;;;;;;;;;21.21;41.52;101477.41;5048582;28;20442;-55
2022/07/30 02:00:06;;;;;;;;;;;;;;;21.16;41.68;101476.97;5039574;28;20075;-50
2022/07/30 02:02:33;;;;;;;;;;;;;;;21.12;41.96;101479.09;5035990;28;25239;-52
2022/07/30 02:04:59;;;;;;;;;;;;;;;21.10;41.98;101481.06;5031795;28;19921;-53
2022/07/30 02:07:44;;;;;;;;;;;;;;;21.08;41.96;101474.16;5030838;28;20372;-55
2022/07/30 02:10:11;;;;;;;;;;;;;;;21.06;41.85;101474.28;5029109;28;19925;-55
2022/07/30 02:12:41;;;;;;;;;;;;;;;21.05;41.97;101479.78;5037760;28;20425;-54
2022/07/30 02:15:07;;;;;;;;;;;;;;;21.02;41.98;101471.06;5041087;28;19926;-52
2022/07/30 02:17:37;;;;;;;;;;;;;;;20.99;42.10;101471.34;5037433;28;19917;-56
2022/07/30 02:20:03;;;;;;;;;;;;;;;20.95;42.17;101472.59;5040816;28;19921;-57
2022/07/30 02:22:32;;;;;;;;;;;;;;;20.96;42.34;101471.59;5026193;28;20311;-53
2022/07/30 02:24:59;;;;;;;;;;;;;;;20.94;42.46;101472.72;5029625;28;20344;-52
2022/07/30 02:27:26;;;;;;;;;;;;;;;20.92;42.38;101467.53;5046956;28;20759;-57
2022/07/30 02:29:53;;;;;;;;;;;;;;;20.90;42.46;101461.47;5035010;28;20335;-52
2022/07/30 02:32:20;;;;;;;;;;;;;;;20.86;42.47;101466.25;5034458;28;19921;-55
2022/07/30 02:34:48;;;;;;;;;;;;;;;20.83;42.76;101463.88;5029058;28;19921;-54
2022/07/30 02:37:14;;;;;;;;;;;;;;;20.81;42.67;101471.16;5033786;28;19921;-55
2022/07/30 02:39:41;;;;;;;;;;;;;;;20.78;42.87;101467.94;5043295;28;19925;-57
2022/07/30 02:42:08;;;;;;;;;;;;;;;20.76;42.73;101470.72;5041873;28;19944;-55
2022/07/30 02:44:34;;;;;;;;;;;;;;;20.74;43.03;101470.00;5033156;28;19932;-55
2022/07/30 02:47:01;;;;;;;;;;;;;;;20.71;42.96;101473.78;5039185;28;19928;-55
2022/07/30 02:49:28;;;;;;;;;;;;;;;20.70;43.03;101469.44;5044469;28;19959;-55
2022/07/30 02:51:53;;;;;;;;;;;;;;;20.68;43.14;101479.41;5041332;28;19947;-52
2022/07/30 02:54:19;;;;;;;;;;;;;;;20.66;43.24;101470.69;5035270;28;19967;-55
2022/07/30 02:56:46;;;;;;;;;;;;;;;20.67;43.37;101467.03;5035449;28;19929;-54
2022/07/30 02:59:12;;;;;;;;;;;;;;;20.68;43.08;101471.38;5032695;28;19921;-55
2022/07/30 03:01:37;;;;;;;;;;;;;;;20.68;43.34;101474.06;5026009;28;19920;-53
2022/07/30 03:04:04;;;;;;;;;;;;;;;20.66;43.27;101473.34;5034246;28;19925;-55
2022/07/30 03:06:29;;;;;;;;;;;;;;;20.65;43.50;101470.81;5030117;28;19925;-55
2022/07/30 03:08:55;;;;;;;;;;;;;;;20.63;43.08;101476.31;5031173;28;19917;-52
2022/07/30 03:11:22;;;;;;;;;;;;;;;20.63;43.65;101476.31;5038317;28;19949;-58
2022/07/30 03:13:48;;;;;;;;;;;;;;;20.61;43.50;101472.94;5039039;28;20371;-55
2022/07/30 03:16:15;;;;;;;;;;;;;;;20.59;43.36;101468.69;5026083;28;19987;-57
2022/07/30 03:18:41;;;;;;;;;;;;;;;20.58;43.70;101470.53;5037353;28;19927;-55
2022/07/30 03:21:08;;;;;;;;;;;;;;;20.56;43.57;101465.34;5022937;28;19917;-53
2022/07/30 03:23:36;;;;;;;;;;;;;;;20.53;43.67;101467.41;5030879;28;19925;-53
2022/07/30 03:26:02;;;;;;;;;;;;;;;20.53;43.92;101470.09;5031760;28;19927;-52
2022/07/30 03:28:30;;;;;;;;;;;;;;;20.51;43.86;101472.03;5039950;28;19928;-52
2022/07/30 03:30:55;;;;;;;;;;;;;;;20.50;43.94;101465.00;5028600;28;19917;-54
2022/07/30 03:33:21;;;;;;;;;;;;;;;20.48;43.94;101462.47;5024374;28;20304;-53
2022/07/30 03:35:48;;;;;;;;;;;;;;;20.46;43.96;101460.94;5037309;28;19921;-54
2022/07/30 03:38:13;;;;;;;;;;;;;;;20.45;44.19;101461.91;5030097;28;19970;-52
2022/07/30 03:40:40;;;;;;;;;;;;;;;20.42;44.13;101455.00;5036161;28;19921;-57
2022/07/30 03:43:07;;;;;;;;;;;;;;;20.39;44.30;101453.44;5038894;28;19924;-55
2022/07/30 03:45:32;;;;;;;;;;;;;;;20.40;44.41;101455.13;5031232;28;19935;-55
2022/07/30 03:47:58;;;;;;;;;;;;;;;20.38;44.35;101462.44;5040578;28;19974;-52
2022/07/30 03:50:24;;;;;;;;;;;;;;;20.38;44.17;101458.94;5026159;28;19958;-51
2022/07/30 03:52:49;;;;;;;;;;;;;;;20.35;44.65;101457.34;5026663;28;19924;-51
2022/07/30 03:55:15;;;;;;;;;;;;;;;20.36;44.51;101463.56;5033918;28;19917;-54
2022/07/30 03:57:41;;;;;;;;;;;;;;;20.35;44.61;101457.34;5042545;28;19928;-54
2022/07/30 04:00:11;;;;;;;;;;;;;;;20.34;44.69;101458.38;5039048;28;19929;-53
2022/07/30 04:02:43;;;;;;;;;;;;;;;20.34;44.48;101455.69;5032878;28;19925;-52
2022/07/30 04:05:10;;;;;;;;;;;;;;;20.34;44.62;101461.03;5030181;28;19917;-50
2022/07/30 04:07:35;;;;;;;;;;;;;;;20.33;44.62;101458.50;5022506;28;20253;-51
2022/07/30 04:10:00;;;;;;;;;;;;;;;20.30;44.77;101466.78;5028599;28;20425;-50
2022/07/30 04:12:26;;;;;;;;;;;;;;;20.27;44.93;101467.91;5033820;28;19974;-54
2022/07/30 04:14:52;;;;;;;;;;;;;;;20.25;44.88;101459.16;5030729;28;19928;-51
2022/07/30 04:17:23;;;;;;;;;;;;;;;20.23;45.10;101466.47;5037492;28;19978;-55
2022/07/30 04:19:50;;;;;;;;;;;;;;;20.22;45.13;101473.66;5032344;28;19940;-53
2022/07/30 04:22:20;;;;;;;;;;;;;;;20.23;45.14;101467.31;5026554;28;19924;-54
2022/07/30 04:24:45;;;;;;;;;;;;;;;20.26;44.93;101476.88;5033539;28;19916;-53
2022/07/30 04:27:11;;;;;;;;;;;;;;;20.25;45.33;101477.88;5028544;28;20499;-58
2022/07/30 04:29:36;;;;;;;;;;;;;;;20.26;45.18;101474.22;5046126;28;20375;-58
2022/07/30 04:32:02;;;;;;;;;;;;;;;20.24;45.21;101470.84;5030400;28;19924;-56
2022/07/30 04:34:27;;;;;;;;;;;;;;;20.22;45.41;101470.13;5034317;28;19972;-54
2022/07/30 04:36:53;;;;;;;;;;;;;;;20.23;45.73;101472.66;5028502;28;19971;-54
2022/07/30 04:39:18;;;;;;;;;;;;;;;20.24;45.53;101473.50;5033985;28;20012;-50
2022/07/30 04:41:43;;;;;;;;;;;;;;;20.21;45.54;101476.44;5031132;28;20011;-54
2022/07/30 04:44:09;;;;;;;;;;;;;;;20.22;45.56;101470.13;5034488;28;19917;-54
2022/07/30 04:46:34;;;;;;;;;;;;;;;20.24;45.83;101470.84;5040906;28;19921;-53
2022/07/30 04:48:59;;;;;;;;;;;;;;;20.26;45.91;101466.19;5039065;28;19925;-54
2022/07/30 04:51:28;;;;;;;;;;;;;;;20.27;46.02;101465.22;5033260;28;19925;-54
2022/07/30 04:53:56;;;;;;;;;;;;;;;20.28;46.00;101477.59;5026453;28;19928;-54
2022/07/30 04:56:22;;;;;;;;;;;;;;;20.30;45.88;101475.66;5031744;28;19932;-57
2022/07/30 04:58:47;;;;;;;;;;;;;;;20.31;46.16;101477.34;5032879;28;19929;-58
2022/07/30 05:01:21;;;;;;;;;;;;;;;20.32;46.05;101476.38;5026797;28;20337;-56
2022/07/30 05:03:48;;;;;;;;;;;;;;;20.33;46.08;101472.72;5035962;28;19925;-55
2022/07/30 05:06:14;;;;;;;;;;;;;;;20.35;46.18;101476.06;5030307;28;20003;-56
2022/07/30 05:08:40;;;;;;;;;;;;;;;20.37;45.98;101482.13;5028012;28;20016;-49
2022/07/30 05:11:05;;;;;;;;;;;;;;;20.37;46.22;101487.47;5026483;28;19929;-55
2022/07/30 05:13:31;;;;;;;;;;;;;;;20.38;46.18;101481.16;5049623;28;19921;-53
2022/07/30 05:15:56;;;;;;;;;;;;;;;20.41;46.30;101486.22;5027524;28;19936;-54
2022/07/30 05:18:21;;;;;;;;;;;;;;;20.45;46.18;101483.28;5046833;28;19916;-55
2022/07/30 05:20:47;;;;;;;;;;;;;;;20.48;46.22;101483.03;5029529;28;19960;-53
2022/07/30 05:23:12;;;;;;;;;;;;;;;20.51;46.04;101485.41;5044285;28;19935;-51
2022/07/30 05:25:37;;;;;;;;;;;;;;;20.57;46.29;101479.53;5032174;28;19966;-52
2022/07/30 05:28:03;;;;;;;;;;;;;;;20.54;46.11;101483.34;5043839;28;19974;-55
2022/07/30 05:30:28;;;;;;;;;;;;;;;20.56;46.19;101494.75;5036194;28;20411;-55
2022/07/30 05:32:53;;;;;;;;;;;;;;;20.59;46.22;101485.59;5033428;28;20324;-55
2022/07/30 05:35:19;;;;;;;;;;;;;;;20.60;46.44;101492.63;5031132;28;19955;-56
2022/07/30 05:37:44;;;;;;;;;;;;;;;20.58;46.23;101499.94;5035368;28;19937;-52
2022/07/30 05:40:10;;;;;;;;;;;;;;;20.58;46.39;101491.91;5038105;28;19932;-53
2022/07/30 05:42:35;;;;;;;;;;;;;;;20.58;46.52;101483.91;5027896;28;19928;-51
2022/07/30 05:45:01;;;;;;;;;;;;;;;20.60;46.37;101492.63;5035217;28;19960;-52
2022/07/30 05:47:26;;;;;;;;;;;;;;;20.59;46.63;101485.59;5023272;28;19928;-52
2022/07/30 05:49:52;;;;;;;;;;;;;;;20.63;46.41;101488.81;5027888;28;19928;-54
2022/07/30 05:52:17;;;;;;;;;;;;;;;20.66;46.53;101484.03;5023937;28;19929;-57
2022/07/30 05:54:43;;;;;;;;;;;;;;;20.71;46.54;101487.16;5025430;28;20012;-51
2022/07/30 05:57:08;;;;;;;;;;;;;;;20.77;46.61;101482.28;5026643;28;19931;-53
2022/07/30 05:59:33;;;;;;;;;;;;;;;20.81;46.27;101489.03;5026986;28;19925;-51
2022/07/30 06:02:00;;;;;;;;;;;;;;;20.85;46.35;101485.97;5035479;28;19925;-51
2022/07/30 06:04:25;;;;;;;;;;;;;;;20.88;46.40;101490.19;5037181;28;20303;-53
2022/07/30 06:06:51;;;;;;;;;;;;;;;20.90;46.50;101487.38;5031152;28;20387;-52
2022/07/30 06:09:16;;;;;;;;;;;;;;;20.94;46.71;101489.66;5029389;28;19936;-51
2022/07/30 06:11:42;;;;;;;;;;;;;;;21.00;46.33;101491.75;5021639;28;19928;-55
2022/07/30 06:14:07;;;;;;;;;;;;;;;21.05;46.50;101485.13;5032637;28;19943;-53
2022/07/30 06:16:32;;;;;;;;;;;;;;;21.08;46.46;101485.69;5027165;28;20002;-54
2022/07/30 06:18:58;;;;;;;;;;;;;;;21.12;46.18;101488.94;5026426;28;19982;-54
2022/07/30 06:21:23;;;;;;;;;;;;;;;21.16;46.34;101487.69;5025849;28;20411;-52
2022/07/30 06:23:48;;;;;;;;;;;;;;;21.21;46.09;101490.78;5022703;28;20017;-56
2022/07/30 06:26:14;;;;;;;;;;;;;;;21.25;46.10;101480.63;5023932;28;19925;-49
2022/07/30 06:28:39;;;;;;;;;;;;;;;21.30;46.27;101489.94;5041319;28;19928;-57
2022/07/30 06:31:05;;;;;;;;;;;;;;;21.35;46.51;101486.00;5034739;28;19925;-59
2022/07/30 06:33:30;;;;;;;;;;;;;;;21.40;46.18;101499.81;5023747;28;20010;-59
2022/07/30 06:35:56;;;;;;;;;;;;;;;21.45;46.06;101492.19;5049825;28;20011;-57
2022/07/30 06:38:21;;;;;;;;;;;;;;;21.47;46.17;101495.56;5032589;28;19971;-56
2022/07/30 06:40:46;;;;;;;;;;;;;;;21.51;46.12;101488.94;5040110;28;20586;-59
2022/07/30 06:43:12;;;;;;;;;;;;;;;21.56;46.12;101489.34;5032243;28;19936;-55
2022/07/30 06:45:38;;;;;;;;;;;;;;;21.59;46.00;101491.75;5019346;28;19921;-57
2022/07/30 06:48:03;;;;;;;;;;;;;;;21.62;46.16;101491.50;5033558;28;19925;-56
2022/07/30 06:50:29;;;;;;;;;;;;;;;21.63;46.20;101484.28;5059525;22;19939;-59
2022/07/30 06:52:54;;;;;;;;;;;;;;;21.66;46.17;101488.53;5039532;28;19943;-54
2022/07/30 06:55:19;;;;;;;;;;;;;;;21.70;46.13;101492.63;5051656;28;19927;-56
2022/07/30 06:57:45;;;;;;;;;;;;;;;21.75;46.07;101482.31;5038819;28;20024;-56
2022/07/30 07:00:10;;;;;;;;;;;;;;;21.79;46.22;101494.44;5038767;28;20016;-53
2022/07/30 07:02:35;;;;;;;;;;;;;;;21.84;45.99;101497.53;5038570;28;19924;-51
2022/07/30 07:05:01;;;;;;;;;;;;;;;21.90;45.78;101496.94;5048322;28;19963;-53
2022/07/30 07:07:26;;;;;;;;;;;;;;;21.95;45.93;101492.97;5040254;28;19986;-52
2022/07/30 07:09:52;;;;;;;;;;;;;;;22.00;45.81;101498.75;5040233;28;20016;-51
2022/07/30 07:12:17;;;;;;;;;;;;;;;22.04;45.59;101497.44;5044871;28;19920;-50
2022/07/30 07:14:43;;;;;;;;;;;;;;;22.08;45.93;101504.22;5040023;28;19921;-54
2022/07/30 07:17:08;;;;;;;;;;;;;;;22.12;45.70;101494.91;5039934;28;20012;-50
2022/07/30 07:19:33;;;;;;;;;;;;;;;22.18;45.37;101505.03;5032075;28;19932;-57
2022/07/30 07:21:59;;;;;;;;;;;;;;;22.21;45.55;101499.38;5043021;28;20034;-58
2022/07/30 07:24:24;;;;;;;;;;;;;;;22.26;45.65;101498.09;5043854;28;19920;-51
2022/07/30 07:26:49;;;;;;;;;;;;;;;22.30;45.61;101497.66;5038150;28;20467;-56
2022/07/30 07:29:15;;;;;;;;;;;;;;;22.35;45.36;101494.53;5045312;28;19921;-56
2022/07/30 07:31:40;;;;;;;;;;;;;;;22.39;45.23;101490.56;5030298;28;19935;-53
2022/07/30 07:34:06;;;;;;;;;;;;;;;22.43;45.29;101491.13;5046970;28;19927;-51
2022/07/30 07:36:31;;;;;;;;;;;;;;;22.46;45.21;101493.53;5044774;28;20008;-55
2022/07/30 07:38:56;;;;;;;;;;;;;;;22.51;45.04;101493.94;5043733;28;19917;-53
2022/07/30 07:41:22;;;;;;;;;;;;;;;22.55;45.00;101495.28;5031834;28;20024;-59
2022/07/30 07:43:47;;;;;;;;;;;;;;;22.57;45.15;101493.31;5038817;28;19925;-54
2022/07/30 07:46:15;;;;;;;;;;;;;;;22.63;44.90;101491.88;5033224;28;20473;-55
2022/07/30 07:48:41;;;;;;;;;;;;;;;22.67;45.04;101491.44;5044016;28;19925;-53
2022/07/30 07:51:06;;;;;;;;;;;;;;;22.70;44.93;101492.97;5043612;28;19921;-61
2022/07/30 07:53:32;;;;;;;;;;;;;;;22.73;44.80;101489.13;5042040;28;20066;-52
2022/07/30 07:55:58;;;;;;;;;;;;;;;22.77;45.02;101496.72;5033231;28;19928;-55
2022/07/30 07:58:23;;;;;;;;;;;;;;;22.81;44.91;101491.91;5026823;28;19928;-51
2022/07/30 08:00:49;;;;;;;;;;;;;;;22.83;44.75;101487.25;5045148;28;19925;-54
2022/07/30 08:03:14;;;;;;;;;;;;;;;22.85;44.78;101490.59;5039066;28;20387;-53
2022/07/30 08:05:39;;;;;;;;;;;;;;;22.90;44.74;101492.84;5038500;28;20352;-51
2022/07/30 08:08:05;;;;;;;;;;;;;;;22.93;44.52;101490.69;5034685;28;20391;-51
2022/07/30 08:10:30;;;;;;;;;;;;;;;22.97;44.80;101488.56;5047702;28;20325;-55
2022/07/30 08:12:55;;;;;;;;;;;;;;;23.02;44.62;101485.41;5039669;28;19941;-55
2022/07/30 08:15:21;;;;;;;;;;;;;;;23.05;44.73;101496.69;5034222;28;20051;-57
2022/07/30 08:17:46;;;;;;;;;;;;;;;23.11;44.54;101492.56;5037303;28;19920;-59
2022/07/30 08:20:13;;;;;;;;;;;;;;;23.16;44.61;101486.72;5036429;28;20376;-56
2022/07/30 08:22:38;;;;;;;;;;;;;;;23.23;44.19;101493.19;5022713;28;19917;-55
2022/07/30 08:25:04;;;;;;;;;;;;;;;23.28;44.19;101496.25;5041041;28;19924;-58
2022/07/30 08:27:29;;;;;;;;;;;;;;;23.31;44.15;101495.94;5040369;28;19929;-54
2022/07/30 08:29:55;;;;;;;;;;;;;;;23.32;44.11;101492.28;5036736;28;19966;-58
2022/07/30 08:32:20;;;;;;;;;;;;;;;23.35;44.16;101497.34;5037998;28;19921;-53
2022/07/30 08:34:46;;;;;;;;;;;;;;;23.38;44.18;101491.63;5035810;28;20003;-53
2022/07/30 08:37:11;;;;;;;;;;;;;;;23.43;44.04;101483.13;5038605;28;20000;-58
2022/07/30 08:39:36;;;;;;;;;;;;;;;23.49;44.02;101487.88;5039835;28;20404;-57
2022/07/30 08:42:02;;;;;;;;;;;;;;;23.56;43.84;101491.63;5042898;28;20292;-59
2022/07/30 08:44:28;;;;;;;;;;;;;;;23.61;43.74;101493.84;5039146;28;20294;-57
2022/07/30 08:46:55;;;;;;;;;;;;;;;23.63;43.68;101494.53;5035588;28;19920;-57
2022/07/30 08:49:21;;;;;;;;;;;;;;;23.69;43.71;101493.06;5037664;28;19954;-51
2022/07/30 08:51:47;;;;;;;;;;;;;;;23.74;43.66;101502.34;5035666;28;19924;-52
2022/07/30 08:54:12;;;;;;;;;;;;;;;23.79;43.55;101501.03;5018509;28;20261;-52
2022/07/30 08:56:38;;;;;;;;;;;;;;;23.81;43.38;101496.34;5039290;28;19927;-54
2022/07/30 08:59:03;;;;;;;;;;;;;;;23.86;43.41;101499.38;5040063;28;20000;-53
2022/07/30 09:01:29;;;;;;;;;;;;;;;23.89;43.44;101507.13;5039010;28;19923;-55
2022/07/30 09:03:54;;;;;;;;;;;;;;;23.92;43.36;101500.59;5037673;28;19925;-53
2022/07/30 09:06:19;;;;;;;;;;;;;;;23.96;43.12;101508.22;5045723;28;19921;-55
2022/07/30 09:08:45;;;;;;;;;;;;;;;23.98;43.14;101506.19;5046231;28;20327;-51
2022/07/30 09:11:10;;;;;;;;;;;;;;;24.05;43.21;101503.72;5034569;28;20383;-53
2022/07/30 09:13:37;;;;;;;;;;;;;;;24.11;43.18;101504.94;5034677;28;19917;-51
2022/07/30 09:16:03;;;;;;;;;;;;;;;24.15;43.12;101504.47;5025672;28;22575;-52
2022/07/30 09:18:30;;;;;;;;;;;;;;;24.22;43.01;101515.41;5029873;28;19920;-54
2022/07/30 09:20:55;;;;;;;;;;;;;;;24.25;42.78;101509.72;5034201;28;19920;-53
2022/07/30 09:23:20;;;;;;;;;;;;;;;24.27;42.82;101513.09;5040215;28;20018;-57
2022/07/30 09:25:47;;;;;;;;;;;;;;;24.31;42.81;101505.56;5036420;28;20019;-52
2022/07/30 09:28:13;;;;;;;;;;;;;;;24.32;42.67;101504.56;5033062;28;19932;-54
2022/07/30 09:30:45;;;;;;;;;;;;;;;24.34;42.70;101511.44;5041468;28;19925;-58
2022/07/30 09:33:11;;;;;;;;;;;;;;;24.35;42.60;101507.75;5029295;28;19928;-54
2022/07/30 09:35:37;;;;;;;;;;;;;;;24.38;42.71;101508.44;5035457;28;19917;-54
2022/07/30 09:38:03;;;;;;;;;;;;;;;24.40;42.70;101501.06;5043538;28;20350;-54
2022/07/30 09:40:29;;;;;;;;;;;;;;;24.44;42.52;101505.09;5039965;28;19929;-52
2022/07/30 09:43:10;;;;;;;;;;;;;;;24.46;42.48;101503.06;5029995;28;19924;-52
2022/07/30 09:45:48;;;;;;;;;;;;;;;24.47;42.50;101502.94;5027833;28;20392;-59
2022/07/30 09:48:20;;;;;;;;;;;;;;;24.47;42.79;101497.56;5031400;28;19921;-60
2022/07/30 09:50:50;;;;;;;;;;;;;;;24.50;42.67;101501.75;5035684;28;19917;-54
2022/07/30 09:53:15;;;;;;;;;;;;;;;24.54;42.74;101505.81;5033451;28;19929;-57
2022/07/30 09:55:41;;;;;;;;;;;;;;;24.55;42.75;101507.50;5046569;28;20372;-52
2022/07/30 09:58:06;;;;;;;;;;;;;;;24.56;42.69;101500.25;5047813;28;19966;-53
2022/07/30 10:00:33;;;;;;;;;;;;;;;24.56;42.53;101501.13;5037144;28;19925;-56
2022/07/30 10:03:02;;;;;;;;;;;;;;;24.56;42.45;101498.44;5039518;28;19920;-54
2022/07/30 10:05:27;;;;;;;;;;;;;;;24.57;42.53;101501.94;5039990;28;20322;-55
2022/07/30 10:07:57;;;;;;;;;;;;;;;24.59;42.70;101500.78;5045898;28;20687;-56
2022/07/30 10:10:29;;;;;;;;;;;;;;;24.62;42.64;101503.16;5046474;28;19925;-56
2022/07/30 10:12:59;;;;;;;;;;;;;;;24.63;42.52;101496.75;5036918;28;20502;-54
2022/07/30 10:15:27;;;;;;;;;;;;;;;24.63;42.59;101494.06;5039997;28;19924;-54
2022/07/30 10:17:53;;;;;;;;;;;;;;;24.67;42.50;101502.66;5037047;28;19947;-56
2022/07/30 10:20:18;;;;;;;;;;;;;;;24.70;42.41;101494.28;5035820;28;19929;-54
2022/07/30 10:22:44;;;;;;;;;;;;;;;24.75;42.44;101496.47;5038686;28;19974;-55
2022/07/30 10:25:10;;;;;;;;;;;;;;;24.77;42.50;101498.03;5048733;28;20007;-55
2022/07/30 10:27:37;;;;;;;;;;;;;;;24.77;42.29;101498.03;5046429;28;19936;-55
2022/07/30 10:30:03;;;;;;;;;;;;;;;24.75;42.19;101496.47;5044368;28;19928;-53
2022/07/30 10:32:28;;;;;;;;;;;;;;;24.74;42.39;101497.47;5017533;28;19928;-57
2022/07/30 10:34:54;;;;;;;;;;;;;;;24.73;42.34;101502.03;5040862;28;19925;-57
2022/07/30 10:37:21;;;;;;;;;;;;;;;24.71;42.44;101500.53;5042302;28;19929;-56
2022/07/30 10:39:51;;;;;;;;;;;;;;;24.71;42.29;101500.53;5047593;28;19925;-55
2022/07/30 10:42:31;;;;;;;;;;;;;;;24.72;42.40;101494.13;5051097;28;19970;-54
2022/07/30 10:44:59;;;;;;;;;;;;;;;24.79;42.41;101497.84;5043610;28;19917;-57
2022/07/30 10:47:25;;;;;;;;;;;;;;;24.85;42.26;101493.66;5042950;28;19924;-56
2022/07/30 10:50:11;;;;;;;;;;;;;;;24.89;42.23;101490.47;5039521;28;19925;-53
2022/07/30 10:52:44;;;;;;;;;;;;;;;24.95;42.11;101492.50;5038294;28;19925;-56
2022/07/30 10:55:13;;;;;;;;;;;;;;;25.01;42.11;101485.59;5046379;28;19920;-55
2022/07/30 10:57:57;;;;;;;;;;;;;;;25.07;42.19;101495.72;5047473;28;19920;-57
2022/07/30 11:00:23;;;;;;;;;;;;;;;25.12;42.13;101492.53;5043059;28;19932;-55
2022/07/30 11:03:06;;;;;;;;;;;;;;;25.20;41.96;101497.06;5036002;28;19932;-59
2022/07/30 11:05:32;;;;;;;;;;;;;;;25.24;41.80;101498.44;5047891;28;19920;-54
2022/07/30 11:08:17;;;;;;;;;;;;;;;25.26;41.63;101494.56;5041418;28;19924;-58
2022/07/30 11:10:43;;;;;;;;;;;;;;;25.29;41.78;101500.63;5047778;28;19924;-58
2022/07/30 11:13:09;;;;;;;;;;;;;;;25.32;41.64;101500.28;5042322;28;20345;-56
2022/07/30 11:16:00;;;;;;;;;;;;;;;25.34;41.58;101503.63;5036476;28;20375;-56
2022/07/30 11:18:26;;;;;;;;;;;;;;;25.35;41.44;101506.16;5045563;28;19920;-56
2022/07/30 11:21:10;;;;;;;;;;;;;;;25.38;41.44;101499.59;5043138;28;20371;-56
2022/07/30 11:23:37;;;;;;;;;;;;;;;25.40;41.33;101494.88;5020519;28;20723;-57
2022/07/30 11:26:02;;;;;;;;;;;;;;;25.43;41.47;101502.66;5025321;28;20672;-56
2022/07/30 11:28:32;;;;;;;;;;;;;;;25.46;41.32;101494.25;5021639;28;20051;-56
2022/07/30 11:30:58;;;;;;;;;;;;;;;25.50;41.25;101495.56;5038726;28;20003;-56
2022/07/30 11:33:23;;;;;;;;;;;;;;;25.55;41.03;101498.63;5034072;28;19973;-55
2022/07/30 11:36:11;;;;;;;;;;;;;;;25.60;40.76;101499.97;5034105;28;20028;-58
2022/07/30 11:38:53;;;;;;;;;;;;;;;25.60;40.75;101492.72;5039995;28;20344;-56
2022/07/30 11:41:18;;;;;;;;;;;;;;;25.64;40.93;101490.53;5032168;28;20015;-56
2022/07/30 11:43:44;;;;;;;;;;;;;;;25.67;40.80;101495.56;5036812;28;20011;-55
2022/07/30 11:46:10;;;;;;;;;;;;;;;25.69;40.81;101493.53;5033713;28;20431;-53
2022/07/30 11:48:40;;;;;;;;;;;;;;;25.70;40.75;101493.41;5033054;28;19932;-54
2022/07/30 11:51:07;;;;;;;;;;;;;;;25.74;40.76;101498.41;5033447;28;20011;-53
2022/07/30 11:53:33;;;;;;;;;;;;;;;25.78;40.61;101495.25;5040748;28;19940;-57
2022/07/30 11:55:59;;;;;;;;;;;;;;;25.80;40.56;101493.19;5036163;28;20327;-53
2022/07/30 11:58:36;;;;;;;;;;;;;;;25.84;40.42;101494.53;5028467;28;19920;-56
2022/07/30 12:01:05;;;;;;;;;;;;;;;25.86;40.27;101495.22;5032829;28;19936;-55
2022/07/30 12:03:31;;;;;;;;;;;;;;;25.91;40.35;101489.28;5014273;28;20011;-55
2022/07/30 12:06:04;;;;;;;;;;;;;;;25.92;40.17;101492.84;5032120;28;19924;-55
2022/07/30 12:08:37;;;;;;;;;;;;;;;25.93;39.98;101498.06;5037884;28;19928;-56
2022/07/30 12:11:02;;;;;;;;;;;;;;;25.94;40.04;101491.66;5042377;28;19921;-57
2022/07/30 12:13:28;;;;;;;;;;;;;;;25.96;39.84;101486.06;5043830;28;19936;-54
2022/07/30 12:15:54;;;;;;;;;;;;;;;25.98;39.98;101493.00;5041854;28;20394;-58
2022/07/30 12:18:26;;;;;;;;;;;;;;;26.00;40.02;101485.59;5030383;28;19940;-55
2022/07/30 12:20:55;;;;;;;;;;;;;;;26.05;39.78;101486.91;5032140;28;20391;-55
2022/07/30 12:23:21;;;;;;;;;;;;;;;26.06;39.80;101480.50;5035778;28;20391;-58
2022/07/30 12:25:46;;;;;;;;;;;;;;;26.04;39.75;101488.75;5035378;28;19921;-59
2022/07/30 12:28:18;;;;;;;;;;;;;;;26.03;39.63;101493.28;5038462;28;19916;-56
2022/07/30 12:30:43;;;;;;;;;;;;;;;26.03;39.61;101487.09;5042782;28;19932;-57
2022/07/30 12:33:09;;;;;;;;;;;;;;;26.04;39.54;101491.47;5037964;28;19925;-57